Time;durP1;ratioP1;P1;durP2;ratioP2;P2;SDS_P1;SDS_P2;PMS_P1;PMS_P2;Temp;Humidity;BMP_temperature;BMP_pressure;BME280_temperature;BME280_humidity;BME280_pressure;Samples;Min_cycle;Max_cycle;Signal;HPM_P1;HPM_P2
2023/04/30 00:01:39;;;;;;;3.92;1.20;;;;;;;9.77;55.11;101385.69;5031068;28;20032;-73
2023/04/30 00:04:04;;;;;;;7.97;1.40;;;;;;;9.43;57.48;101344.94;5033140;28;20040;-73
2023/04/30 00:06:30;;;;;;;2.58;1.00;;;;;;;9.58;57.02;101372.72;5033112;28;20389;-74
2023/04/30 00:08:55;;;;;;;4.45;1.30;;;;;;;9.60;59.39;101384.97;5031926;28;20392;-73
2023/04/30 00:11:24;;;;;;;4.07;1.50;;;;;;;9.56;59.24;101380.94;5031388;28;20091;-74
2023/04/30 00:13:50;;;;;;;3.95;1.27;;;;;;;9.57;58.70;101381.78;5045112;28;20021;-74
2023/04/30 00:16:16;;;;;;;4.38;1.10;;;;;;;9.53;58.98;101384.00;5032797;28;20092;-74
2023/04/30 00:18:42;;;;;;;2.70;1.20;;;;;;;9.45;57.18;101392.09;5031557;28;20026;-73
2023/04/30 00:21:07;;;;;;;4.05;1.40;;;;;;;9.46;57.65;101393.78;5036672;28;20017;-73
2023/04/30 00:23:33;;;;;;;4.15;1.33;;;;;;;9.47;57.85;101405.34;5035925;28;20036;-74
2023/04/30 00:25:58;;;;;;;2.85;1.33;;;;;;;9.38;58.99;101397.34;5037501;28;20065;-73
2023/04/30 00:28:24;;;;;;;3.63;1.00;;;;;;;9.31;58.05;101374.91;5033924;28;20477;-74
2023/04/30 00:30:49;;;;;;;5.07;1.73;;;;;;;9.40;59.81;101398.03;5031253;28;20556;-73
2023/04/30 00:33:14;;;;;;;4.70;1.30;;;;;;;9.44;61.38;101384.22;5032678;28;20030;-74
2023/04/30 00:35:41;;;;;;;5.53;2.15;;;;;;;9.38;61.71;101409.94;5030972;28;20033;-73
2023/04/30 00:38:06;;;;;;;6.95;2.08;;;;;;;9.15;59.35;101399.16;5014299;28;20055;-73
2023/04/30 00:40:34;;;;;;;4.93;1.77;;;;;;;9.34;61.21;101400.59;5014214;28;20033;-72
2023/04/30 00:43:02;;;;;;;2.97;1.25;;;;;;;9.20;56.80;101394.09;5032115;28;20096;-72
2023/04/30 00:45:27;;;;;;;3.53;1.20;;;;;;;9.28;57.88;101430.81;5031163;28;20061;-72
2023/04/30 00:47:53;;;;;;;5.22;1.60;;;;;;;9.17;58.13;101399.81;5032284;28;20014;-73
2023/04/30 00:50:19;;;;;;;4.25;1.27;;;;;;;9.26;58.09;101414.88;5032215;28;20108;-73
2023/04/30 00:52:44;;;;;;;2.92;1.15;;;;;;;9.07;56.99;101394.69;5031256;28;20017;-73
2023/04/30 00:55:11;;;;;;;3.88;1.63;;;;;;;9.14;56.93;101384.06;5016508;28;20030;-74
2023/04/30 00:57:37;;;;;;;3.88;1.58;;;;;;;9.21;55.29;101421.81;5053876;28;20052;-72
2023/04/30 01:00:03;;;;;;;5.20;1.50;;;;;;;9.12;56.97;101369.97;5032701;28;20060;-73
2023/04/30 01:02:30;;;;;;;4.35;1.48;;;;;;;9.25;60.38;101423.13;5031550;28;20392;-73
2023/04/30 01:04:56;;;;;;;4.10;1.30;;;;;;;9.14;57.99;101402.88;5030891;28;20120;-73
2023/04/30 01:07:27;;;;;;;3.95;1.42;;;;;;;9.01;57.34;101386.47;5030934;28;20026;-73
2023/04/30 01:09:53;;;;;;;4.97;1.55;;;;;;;9.09;60.23;101391.81;5031099;28;20038;-73
2023/04/30 01:12:37;;;;;;;4.65;1.23;;;;;;;9.23;59.45;101436.69;5035430;28;20021;-73
2023/04/30 01:15:14;;;;;;;5.32;1.20;;;;;;;9.18;59.08;101415.75;5036011;28;20449;-73
2023/04/30 01:17:54;;;;;;;2.95;1.20;;;;;;;9.13;59.11;101438.75;5034871;28;20041;-73
2023/04/30 01:20:21;;;;;;;5.20;1.48;;;;;;;9.11;59.24;101432.75;5044044;28;20029;-73
2023/04/30 01:22:56;;;;;;;5.38;1.60;;;;;;;9.23;59.17;101435.88;5037934;28;20025;-72
2023/04/30 01:25:34;;;;;;;2.28;0.77;;;;;;;9.34;57.62;101444.38;5036059;28;20559;-73
2023/04/30 01:28:10;;;;;;;2.03;1.13;;;;;;;9.24;57.75;101443.75;5034440;28;20030;-73
2023/04/30 01:30:36;;;;;;;3.05;1.20;;;;;;;9.13;62.70;101439.59;5035446;28;20167;-72
2023/04/30 01:33:02;;;;;;;7.45;1.65;;;;;;;9.05;63.31;101447.69;5035277;28;20060;-73
2023/04/30 01:35:58;;;;;;;6.00;1.58;;;;;;;8.90;62.92;101419.88;5035641;28;20041;-73
2023/04/30 01:38:51;;;;;;;3.13;1.17;;;;;;;8.95;61.19;101444.38;5041616;28;20041;-73
2023/04/30 01:41:39;;;;;;;3.75;1.33;;;;;;;8.92;63.73;101445.56;5046429;28;20029;-73
2023/04/30 01:44:13;;;;;;;2.22;0.90;;;;;;;9.04;63.05;101434.44;5034840;28;20028;-73
2023/04/30 01:46:41;;;;;;;4.38;1.30;;;;;;;9.11;66.62;101452.38;5035936;28;20698;-73
2023/04/30 01:49:18;;;;;;;4.15;1.48;;;;;;;9.08;65.10;101451.88;5034311;28;20034;-73
2023/04/30 01:51:47;;;;;;;5.25;1.80;;;;;;;9.02;62.00;101449.88;5035340;28;20029;-73
2023/04/30 01:54:12;;;;;;;2.72;1.23;;;;;;;8.93;61.97;101443.69;5034958;28;20117;-73
2023/04/30 01:56:47;;;;;;;4.93;1.33;;;;;;;9.04;62.80;101451.41;5036056;28;20057;-73
2023/04/30 01:59:14;;;;;;;8.18;1.70;;;;;;;8.96;61.82;101451.41;5035493;28;20091;-72
2023/04/30 02:01:40;;;;;;;2.47;1.25;;;;;;;9.05;60.88;101453.06;5036058;28;20057;-72
2023/04/30 02:04:06;;;;;;;5.32;1.20;;;;;;;8.83;59.78;101418.91;5034531;28;20065;-73
2023/04/30 02:06:31;;;;;;;4.50;1.25;;;;;;;9.03;63.04;101440.81;5036293;28;20049;-72
2023/04/30 02:09:05;;;;;;;6.55;1.70;;;;;;;8.88;61.10;101449.59;5033619;28;20026;-72
2023/04/30 02:11:30;;;;;;;6.90;1.40;;;;;;;8.83;61.93;101425.09;5038574;28;20044;-72
2023/04/30 02:13:56;;;;;;;4.90;1.10;;;;;;;8.76;58.23;101440.22;5045839;28;20056;-72
2023/04/30 02:16:22;;;;;;;4.47;1.30;;;;;;;8.90;56.86;101444.88;5033536;28;20123;-73
2023/04/30 02:18:48;;;;;;;3.03;0.98;;;;;;;8.90;58.93;101455.59;5034224;28;20488;-72
2023/04/30 02:21:13;;;;;;;3.47;1.17;;;;;;;8.90;62.05;101484.28;5032892;28;20042;-73
2023/04/30 02:23:39;;;;;;;3.38;1.10;;;;;;;8.89;59.52;101456.63;5032702;28;20029;-72
2023/04/30 02:26:05;;;;;;;4.03;1.10;;;;;;;8.86;60.95;101462.34;5032818;28;20061;-72
2023/04/30 02:28:30;;;;;;;5.60;0.95;;;;;;;8.86;57.36;101473.06;5034277;28;20202;-72
2023/04/30 02:30:56;;;;;;;2.80;0.90;;;;;;;8.94;61.38;101454.28;5032413;28;20049;-72
2023/04/30 02:33:21;;;;;;;5.00;1.40;;;;;;;8.89;62.11;101486.16;5032689;28;20033;-72
2023/04/30 02:35:47;;;;;;;2.50;1.10;;;;;;;8.80;59.11;101476.44;5033431;28;20488;-72
2023/04/30 02:38:12;;;;;;;5.03;1.10;;;;;;;8.93;60.02;101495.53;5016466;28;20052;-71
2023/04/30 02:40:40;;;;;;;1.60;0.75;;;;;;;8.75;58.71;101453.81;5032615;28;20025;-72
2023/04/30 02:43:05;;;;;;;2.85;0.80;;;;;;;8.88;56.67;101487.16;5034163;28;20033;-73
2023/04/30 02:45:31;;;;;;;5.78;1.48;;;;;;;8.99;59.62;101485.97;5032618;28;20029;-72
2023/04/30 02:47:56;;;;;;;2.35;0.85;;;;;;;9.03;60.03;101494.50;5034133;28;20392;-72
2023/04/30 02:50:22;;;;;;;4.50;1.35;;;;;;;8.82;58.46;101476.28;5032680;28;20392;-72
2023/04/30 02:52:47;;;;;;;4.38;0.98;;;;;;;8.81;57.41;101479.97;5032806;28;20034;-72
2023/04/30 02:55:12;;;;;;;4.03;0.85;;;;;;;8.87;57.31;101500.75;5032720;28;20045;-73
2023/04/30 02:57:38;;;;;;;2.97;1.00;;;;;;;8.88;58.76;101489.03;5033633;28;20030;-72
2023/04/30 03:00:04;;;;;;;5.18;1.40;;;;;;;8.89;62.07;101499.56;5033835;28;20025;-72
2023/04/30 03:02:30;;;;;;;2.30;0.82;;;;;;;8.71;59.01;101496.25;5033803;28;20393;-72
2023/04/30 03:04:55;;;;;;;3.33;1.10;;;;;;;8.87;59.93;101490.88;5032774;28;20037;-72
2023/04/30 03:07:21;;;;;;;4.35;1.10;;;;;;;8.84;60.63;101501.94;5015964;28;20055;-73
2023/04/30 03:09:46;;;;;;;4.00;1.20;;;;;;;8.73;59.56;101499.59;5037409;28;20040;-72
2023/04/30 03:12:13;;;;;;;2.78;0.75;;;;;;;8.73;59.50;101482.66;5037532;28;20080;-72
2023/04/30 03:14:38;;;;;;;5.35;1.10;;;;;;;8.67;57.16;101495.75;5035084;28;20128;-72
2023/04/30 03:17:04;;;;;;;2.60;0.90;;;;;;;8.70;60.96;101491.88;5032978;28;20025;-72
2023/04/30 03:19:30;;;;;;;6.50;1.00;;;;;;;8.83;60.73;101502.09;5033996;28;20052;-72
2023/04/30 03:21:56;;;;;;;6.72;1.15;;;;;;;8.61;60.96;101480.34;5033919;28;20025;-72
2023/04/30 03:24:21;;;;;;;3.58;1.10;;;;;;;8.67;59.42;101498.41;5033226;28;20041;-72
2023/04/30 03:26:47;;;;;;;3.20;1.10;;;;;;;8.72;61.45;101518.56;5032028;28;20040;-72
2023/04/30 03:29:12;;;;;;;3.17;0.73;;;;;;;8.63;57.94;101498.94;5035650;28;20033;-72
2023/04/30 03:31:37;;;;;;;2.72;0.88;;;;;;;8.67;58.09;101494.91;5032684;28;20044;-72
2023/04/30 03:34:03;;;;;;;4.47;0.98;;;;;;;8.76;57.43;101501.94;5032501;28;20049;-72
2023/04/30 03:36:28;;;;;;;3.83;0.90;;;;;;;8.77;58.37;101502.78;5015666;28;20025;-72
2023/04/30 03:38:54;;;;;;;3.88;1.35;;;;;;;8.80;59.93;101505.13;5033368;28;20045;-72
2023/04/30 03:41:20;;;;;;;3.65;0.88;;;;;;;8.79;59.15;101519.56;5032951;28;20048;-72
2023/04/30 03:43:45;;;;;;;2.47;0.80;;;;;;;8.68;57.00;101531.47;4998763;28;20045;-73
2023/04/30 03:46:11;;;;;;;3.35;1.00;;;;;;;8.70;57.83;101537.50;5032588;28;20115;-72
2023/04/30 03:48:37;;;;;;;3.42;0.70;;;;;;;8.74;59.31;101517.38;5016466;28;20033;-72
2023/04/30 03:51:02;;;;;;;2.45;0.80;;;;;;;8.64;58.88;101527.44;5017357;28;20496;-72
2023/04/30 03:53:28;;;;;;;2.72;0.80;;;;;;;8.79;59.41;101525.75;5031072;28;20033;-72
2023/04/30 03:55:54;;;;;;;3.80;1.17;;;;;;;8.93;57.67;101525.06;5031693;28;21822;-71
2023/04/30 03:58:20;;;;;;;6.22;1.02;;;;;;;9.32;59.26;101545.78;5032980;28;20033;-72
2023/04/30 04:00:47;;;;;;;3.60;0.70;;;;;;;9.44;57.85;101524.75;5031505;28;20032;-72
2023/04/30 04:03:13;;;;;;;2.85;0.80;;;;;;;9.38;53.52;101537.03;5033107;28;20033;-72
2023/04/30 04:05:39;;;;;;;3.63;1.10;;;;;;;9.40;53.18;101534.16;5032346;28;20493;-72
2023/04/30 04:08:05;;;;;;;2.33;0.80;;;;;;;9.69;52.90;101548.81;5031984;28;20021;-72
2023/04/30 04:10:31;;;;;;;2.65;0.80;;;;;;;9.70;53.74;101558.56;4999234;28;20021;-72
2023/04/30 04:12:56;;;;;;;3.80;1.15;;;;;;;9.84;51.29;101555.16;5036704;28;20021;-73
2023/04/30 04:15:22;;;;;;;2.05;0.93;;;;;;;9.83;53.24;101540.00;5047389;28;20413;-72
2023/04/30 04:17:48;;;;;;;2.30;0.60;;;;;;;9.40;51.80;101543.06;5034714;28;20052;-72
2023/04/30 04:20:13;;;;;;;1.73;0.77;;;;;;;9.77;52.87;101536.19;5015309;28;20039;-72
2023/04/30 04:22:39;;;;;;;2.47;0.57;;;;;;;10.05;51.55;101567.97;4998477;28;20083;-72
2023/04/30 04:25:05;;;;;;;3.60;0.90;;;;;;;10.26;51.30;101543.13;5034927;28;20045;-72
2023/04/30 04:27:31;;;;;;;4.70;0.85;;;;;;;10.28;52.27;101557.25;5042132;28;20111;-72
2023/04/30 04:29:56;;;;;;;3.13;1.08;;;;;;;10.23;50.50;101551.53;5044583;28;20132;-72
2023/04/30 04:32:22;;;;;;;3.78;0.93;;;;;;;10.54;50.67;101546.97;5032081;28;20029;-72
2023/04/30 04:34:48;;;;;;;5.03;1.17;;;;;;;10.24;51.99;101542.47;5032591;28;20025;-72
2023/04/30 04:37:14;;;;;;;5.57;1.10;;;;;;;10.28;52.96;101550.03;5032419;28;20046;-72
2023/04/30 04:39:40;;;;;;;3.60;0.80;;;;;;;10.33;52.34;101550.34;5031237;28;20022;-72
2023/04/30 04:42:05;;;;;;;2.33;0.98;;;;;;;10.49;49.04;101561.97;5031268;28;20048;-72
2023/04/30 04:44:31;;;;;;;3.35;1.00;;;;;;;10.53;48.56;101563.31;5032526;28;20040;-72
2023/04/30 04:46:57;;;;;;;3.55;1.10;;;;;;;10.29;49.76;101551.69;5034828;28;20523;-71
2023/04/30 04:49:23;;;;;;;2.33;0.65;;;;;;;10.35;47.83;101555.53;5018655;28;20026;-72
2023/04/30 04:51:48;;;;;;;2.70;0.82;;;;;;;10.76;47.85;101556.03;5034723;28;20049;-72
2023/04/30 04:54:13;;;;;;;3.25;0.70;;;;;;;10.77;48.72;101568.47;5018181;28;20116;-73
2023/04/30 04:56:39;;;;;;;2.40;0.75;;;;;;;10.46;50.45;101568.56;5035134;28;20032;-72
2023/04/30 04:59:04;;;;;;;2.90;0.80;;;;;;;10.29;48.37;101570.50;5034325;28;20492;-72
2023/04/30 05:01:30;;;;;;;2.67;0.88;;;;;;;10.42;49.48;101585.25;5036366;28;20059;-72
2023/04/30 05:03:55;;;;;;;3.50;0.80;;;;;;;10.31;49.31;101546.97;5036389;28;20565;-73
2023/04/30 05:06:21;;;;;;;1.48;0.40;;;;;;;10.55;47.25;101596.25;5043575;28;20503;-72
2023/04/30 05:08:47;;;;;;;3.15;1.00;;;;;;;10.62;46.51;101593.66;5038256;28;20019;-72
2023/04/30 05:11:12;;;;;;;2.13;0.70;;;;;;;10.63;46.15;101622.25;5055171;28;20078;-72
2023/04/30 05:13:38;;;;;;;2.90;0.32;;;;;;;11.09;45.33;101601.50;5021843;28;20039;-71
2023/04/30 05:16:03;;;;;;;3.47;0.40;;;;;;;11.50;43.92;101609.19;5036247;28;20033;-72
2023/04/30 05:18:30;;;;;;;1.80;0.70;;;;;;;11.16;45.16;101599.78;5001821;28;20060;-72
2023/04/30 05:20:55;;;;;;;2.03;0.60;;;;;;;10.31;47.82;101608.00;5037953;28;20029;-72
2023/04/30 05:23:21;;;;;;;2.42;0.73;;;;;;;9.78;50.23;101618.50;5036375;28;20029;-71
2023/04/30 05:25:51;;;;;;;2.53;0.80;;;;;;;9.66;52.29;101598.38;5037168;28;20025;-71
2023/04/30 05:28:16;;;;;;;3.28;0.80;;;;;;;9.54;49.10;101622.09;5037739;28;20492;-71
2023/04/30 05:30:42;;;;;;;2.65;0.60;;;;;;;9.65;50.34;101610.16;5035461;28;20033;-70
2023/04/30 05:33:07;;;;;;;1.60;0.80;;;;;;;9.65;51.62;101629.78;5036602;28;20029;-69
2023/04/30 05:35:34;;;;;;;2.28;0.77;;;;;;;9.48;50.02;101614.72;5035833;28;20040;-70
2023/04/30 05:38:01;;;;;;;3.50;0.85;;;;;;;9.51;49.87;101622.44;5037737;28;20509;-71
2023/04/30 05:40:27;;;;;;;4.40;0.40;;;;;;;9.77;51.58;101626.75;5050729;28;20039;-69
2023/04/30 05:42:52;;;;;;;6.68;1.40;;;;;;;9.94;51.44;101630.19;5051103;28;20029;-68
2023/04/30 05:45:17;;;;;;;3.30;1.10;;;;;;;9.64;51.20;101621.91;5035118;28;20029;-67
2023/04/30 05:47:43;;;;;;;4.32;0.95;;;;;;;9.53;49.84;101635.69;5033965;28;20053;-69
2023/04/30 05:50:09;;;;;;;4.13;1.15;;;;;;;9.43;51.40;101640.41;5035183;28;20040;-71
2023/04/30 05:52:34;;;;;;;1.45;0.70;;;;;;;9.28;51.57;101646.50;5050483;28;20488;-71
2023/04/30 05:55:00;;;;;;;4.00;0.80;;;;;;;9.37;52.70;101640.13;5016628;28;20040;-71
2023/04/30 05:57:25;;;;;;;3.03;0.70;;;;;;;9.56;51.08;101644.25;5034078;28;20395;-72
2023/04/30 05:59:51;;;;;;;2.92;0.85;;;;;;;9.29;49.84;101650.84;5034534;28;20029;-69
2023/04/30 06:02:16;;;;;;;1.73;0.60;;;;;;;9.42;51.24;101634.22;5051885;28;20502;-71
2023/04/30 06:04:42;;;;;;;4.07;1.52;;;;;;;9.40;49.96;101617.41;5016673;28;20648;-70
2023/04/30 06:07:07;;;;;;;3.35;0.98;;;;;;;9.53;52.74;101657.19;5033634;28;20100;-71
2023/04/30 06:09:33;;;;;;;3.25;0.88;;;;;;;9.52;50.27;101648.28;5034809;28;20040;-71
2023/04/30 06:11:58;;;;;;;3.80;0.90;;;;;;;9.55;49.26;101663.25;5034795;28;20028;-70
2023/04/30 06:14:24;;;;;;;5.07;0.90;;;;;;;9.40;50.42;101663.09;5034288;28;20385;-69
2023/04/30 06:16:50;;;;;;;1.42;0.40;;;;;;;9.81;50.01;101663.84;5033944;28;20091;-70
2023/04/30 06:19:15;;;;;;;2.90;0.85;;;;;;;9.74;49.38;101644.03;5033391;28;20028;-72
2023/04/30 06:21:42;;;;;;;1.83;0.70;;;;;;;9.89;49.73;101671.03;5034467;28;20060;-71
2023/04/30 06:24:08;;;;;;;3.15;0.70;;;;;;;9.56;48.37;101652.31;5032811;28;20378;-71
2023/04/30 06:26:34;;;;;;;2.33;0.70;;;;;;;9.54;49.83;101653.50;5034444;28;20518;-70
2023/04/30 06:28:59;;;;;;;4.97;0.80;;;;;;;9.52;49.51;101661.72;5034062;28;20028;-71
2023/04/30 06:31:25;;;;;;;2.55;0.90;;;;;;;9.36;50.70;101665.28;5035907;28;20100;-71
2023/04/30 06:33:51;;;;;;;3.65;1.15;;;;;;;9.00;49.79;101635.25;5035522;28;20121;-71
2023/04/30 06:36:18;;;;;;;3.05;0.80;;;;;;;9.23;50.60;101651.53;5034517;28;20034;-70
2023/04/30 06:38:46;;;;;;;3.20;1.10;;;;;;;9.56;51.06;101678.34;5034561;28;20045;-70
2023/04/30 06:41:12;;;;;;;2.35;0.70;;;;;;;9.63;50.36;101692.78;5034659;28;20060;-72
2023/04/30 06:43:37;;;;;;;4.07;1.33;;;;;;;9.72;50.35;101675.63;5048148;28;20079;-69
2023/04/30 06:46:03;;;;;;;3.08;0.80;;;;;;;9.49;49.89;101677.34;5031080;28;20037;-72
2023/04/30 06:48:29;;;;;;;3.97;1.08;;;;;;;9.37;50.15;101675.03;5030826;28;20026;-71
2023/04/30 06:50:55;;;;;;;4.30;1.30;;;;;;;9.59;50.79;101678.00;5031556;28;20037;-72
2023/04/30 06:53:21;;;;;;;4.50;1.20;;;;;;;9.52;48.78;101685.06;5031348;28;20025;-73
2023/04/30 06:55:47;;;;;;;5.57;1.00;;;;;;;9.70;50.05;101663.34;5031133;28;20515;-73
2023/04/30 06:58:13;;;;;;;4.85;1.00;;;;;;;9.54;51.69;101680.38;5032177;28;20030;-72
2023/04/30 07:00:38;;;;;;;4.15;1.15;;;;;;;9.49;51.09;101685.41;5034145;28;20037;-73
2023/04/30 07:03:04;;;;;;;5.20;1.20;;;;;;;9.57;51.03;101648.63;5033017;28;20072;-74
2023/04/30 07:05:30;;;;;;;4.57;1.30;;;;;;;9.53;52.53;101687.56;5032796;28;20117;-73
2023/04/30 07:07:56;;;;;;;2.28;0.80;;;;;;;9.58;53.68;101709.41;5033950;28;20025;-73
2023/04/30 07:10:22;;;;;;;2.10;0.80;;;;;;;9.51;51.10;101692.31;5033056;28;20044;-72
2023/04/30 07:12:47;;;;;;;1.98;0.73;;;;;;;9.52;50.54;101660.91;5035677;28;20179;-70
2023/04/30 07:15:13;;;;;;;3.90;1.00;;;;;;;9.53;51.97;101684.88;5040238;28;20021;-74
2023/04/30 07:17:40;;;;;;;3.90;0.90;;;;;;;9.45;52.08;101713.63;5032578;28;20550;-73
2023/04/30 07:20:07;;;;;;;4.22;1.13;;;;;;;9.76;52.56;101703.81;5033736;28;20095;-72
2023/04/30 07:22:32;;;;;;;6.00;1.25;;;;;;;9.56;52.29;101710.59;5016826;28;20029;-73
2023/04/30 07:24:58;;;;;;;8.10;1.20;;;;;;;9.66;51.91;101713.94;5034490;28;20022;-73
2023/04/30 07:27:23;;;;;;;3.70;0.88;;;;;;;9.67;52.48;101694.13;5033675;28;20546;-73
2023/04/30 07:29:50;;;;;;;3.22;1.00;;;;;;;9.79;52.65;101694.59;5033358;28;20031;-73
2023/04/30 07:32:15;;;;;;;5.45;1.10;;;;;;;9.63;52.12;101711.56;5048707;28;20094;-74
2023/04/30 07:34:41;;;;;;;4.50;1.00;;;;;;;9.74;52.62;101724.69;5032194;28;20029;-73
2023/04/30 07:37:08;;;;;;;2.75;0.98;;;;;;;9.54;51.51;101716.16;5033241;28;20045;-73
2023/04/30 07:39:35;;;;;;;3.33;0.93;;;;;;;9.68;51.74;101732.59;5047946;28;20018;-72
2023/04/30 07:42:02;;;;;;;4.82;1.00;;;;;;;9.55;51.33;101711.59;5048040;28;20064;-72
2023/04/30 07:44:27;;;;;;;0.98;0.57;;;;;;;9.73;52.64;101717.59;5032127;28;20025;-73
2023/04/30 07:46:53;;;;;;;2.53;1.08;;;;;;;9.48;50.85;101718.66;5032694;28;20460;-73
2023/04/30 07:49:18;;;;;;;3.60;1.02;;;;;;;9.51;50.83;101715.66;5032834;28;20484;-73
2023/04/30 07:51:45;;;;;;;3.88;1.00;;;;;;;9.59;50.93;101734.44;5032732;28;20028;-72
2023/04/30 07:54:10;;;;;;;3.38;1.10;;;;;;;9.61;50.79;101714.44;5033114;28;20037;-72
2023/04/30 07:56:35;;;;;;;6.47;1.20;;;;;;;9.81;51.93;101739.09;5033032;28;20036;-72
2023/04/30 07:59:01;;;;;;;6.72;1.20;;;;;;;9.85;53.23;101740.44;5037105;28;20097;-73
2023/04/30 08:01:27;;;;;;;10.38;1.27;;;;;;;9.53;52.87;101732.41;5048784;28;20503;-73
2023/04/30 08:03:52;;;;;;;3.78;1.13;;;;;;;9.65;50.77;101753.41;5041004;28;20034;-70
2023/04/30 08:06:18;;;;;;;5.30;0.90;;;;;;;9.45;48.44;101716.31;5032858;28;20166;-73
2023/04/30 08:08:43;;;;;;;3.15;0.60;;;;;;;9.67;49.00;101757.75;5033533;28;20088;-74
2023/04/30 08:11:10;;;;;;;5.40;1.20;;;;;;;9.63;50.81;101739.31;4999312;28;20060;-74
2023/04/30 08:13:36;;;;;;;4.80;1.00;;;;;;;9.31;49.48;101691.00;5033752;28;20025;-74
2023/04/30 08:16:02;;;;;;;4.55;1.38;;;;;;;9.67;51.16;101747.88;5033491;28;20489;-74
2023/04/30 08:18:29;;;;;;;4.97;0.98;;;;;;;9.62;51.85;101751.06;5015073;28;20041;-74
2023/04/30 08:20:54;;;;;;;5.38;1.00;;;;;;;9.84;53.21;101751.38;5031771;28;20048;-73
2023/04/30 08:23:20;;;;;;;4.32;1.25;;;;;;;9.88;52.99;101768.84;5048925;28;20060;-75
2023/04/30 08:25:45;;;;;;;2.33;0.80;;;;;;;9.70;52.74;101771.72;5033646;28;20040;-74
2023/04/30 08:28:11;;;;;;;3.45;1.05;;;;;;;9.66;50.85;101770.38;5031563;28;20460;-74
2023/04/30 08:30:36;;;;;;;1.35;0.55;;;;;;;9.56;49.24;101767.00;5032709;28;20068;-74
2023/04/30 08:33:02;;;;;;;2.83;0.90;;;;;;;9.67;49.55;101761.31;5033153;28;20068;-74
2023/04/30 08:35:28;;;;;;;1.90;0.50;;;;;;;9.67;49.73;101787.31;5015749;28;20037;-74
2023/04/30 08:37:54;;;;;;;2.90;0.90;;;;;;;9.51;48.79;101764.00;5031116;28;20068;-73
2023/04/30 08:40:20;;;;;;;4.55;0.80;;;;;;;9.58;48.88;101773.06;5032363;28;20049;-73
2023/04/30 08:43:19;;;;;;;3.22;0.90;;;;;;;9.51;49.83;101772.06;5032816;28;20034;-73
2023/04/30 08:45:44;;;;;;;3.50;0.80;;;;;;;9.73;50.27;101790.16;5048953;28;20072;-73
2023/04/30 08:48:12;;;;;;;3.35;0.75;;;;;;;9.65;50.66;101788.34;5033524;28;20543;-73
2023/04/30 08:50:38;;;;;;;3.42;0.60;;;;;;;9.68;49.37;101779.09;5034232;28;20438;-74
2023/04/30 08:53:04;;;;;;;2.13;0.90;;;;;;;9.71;49.65;101794.91;5032508;28;20018;-73
2023/04/30 08:55:33;;;;;;;5.88;1.05;;;;;;;9.86;50.57;101803.09;5031114;28;20045;-74
2023/04/30 08:57:58;;;;;;;3.47;0.60;;;;;;;9.98;48.28;101807.13;5047184;28;20029;-73
2023/04/30 09:00:25;;;;;;;2.20;0.85;;;;;;;10.27;48.81;101806.59;5032113;28;20448;-74
2023/04/30 09:02:51;;;;;;;4.55;0.90;;;;;;;10.15;49.35;101791.78;5014822;28;20480;-74
2023/04/30 09:05:16;;;;;;;2.20;0.70;;;;;;;10.04;48.66;101809.13;5014534;28;20041;-73
2023/04/30 09:07:44;;;;;;;2.00;1.10;;;;;;;9.95;49.38;101806.63;5047393;28;20037;-73
2023/04/30 09:10:21;;;;;;;1.70;0.65;;;;;;;10.01;47.41;101797.88;5047346;28;20014;-72
2023/04/30 09:13:03;;;;;;;4.20;1.10;;;;;;;9.77;51.08;101814.88;5030633;28;20554;-73
2023/04/30 09:15:30;;;;;;;4.88;0.90;;;;;;;9.99;51.69;101819.53;5047195;28;20064;-73
2023/04/30 09:18:05;;;;;;;5.10;1.20;;;;;;;9.94;51.23;101791.50;5031848;28;20017;-73
2023/04/30 09:20:32;;;;;;;2.33;0.75;;;;;;;10.03;50.89;101828.97;5031793;28;20093;-73
2023/04/30 09:23:09;;;;;;;4.50;0.95;;;;;;;10.17;50.54;101821.22;5014431;28;20117;-72
2023/04/30 09:25:41;;;;;;;4.68;0.90;;;;;;;10.16;49.95;101820.34;5030453;28;20021;-71
2023/04/30 09:28:11;;;;;;;5.63;0.90;;;;;;;10.23;49.85;101820.50;5051977;28;20033;-71
2023/04/30 09:30:37;;;;;;;2.50;0.60;;;;;;;9.82;50.41;101824.09;5032602;28;20116;-71
2023/04/30 09:33:03;;;;;;;3.58;0.73;;;;;;;10.09;50.22;101825.56;5033928;28;20129;-72
2023/04/30 09:35:30;;;;;;;3.65;0.90;;;;;;;9.97;49.24;101812.69;5035340;28;20458;-73
2023/04/30 09:37:58;;;;;;;3.30;0.75;;;;;;;9.97;48.37;101826.13;5035536;28;20049;-73
2023/04/30 09:40:44;;;;;;;3.25;1.13;;;;;;;9.99;51.08;101833.00;5034125;28;20515;-73
2023/04/30 09:43:10;;;;;;;3.90;0.90;;;;;;;9.98;49.66;101830.50;5033771;28;20037;-74
2023/04/30 09:45:47;;;;;;;5.32;0.80;;;;;;;10.31;48.29;101834.81;5051164;28;20037;-73
2023/04/30 09:48:31;;;;;;;3.03;0.80;;;;;;;10.24;48.40;101812.28;5050762;28;20028;-73
2023/04/30 09:50:56;;;;;;;3.47;0.95;;;;;;;10.12;49.75;101829.78;5033714;28;20103;-74
2023/04/30 09:53:23;;;;;;;4.78;0.80;;;;;;;10.33;48.34;101821.19;5034751;28;20560;-74
2023/04/30 09:55:50;;;;;;;3.83;0.80;;;;;;;10.47;46.84;101827.72;5034242;28;20095;-74
2023/04/30 09:58:18;;;;;;;4.03;1.05;;;;;;;10.32;48.86;101839.19;5034862;28;20101;-74
2023/04/30 10:00:45;;;;;;;3.22;0.73;;;;;;;10.15;48.76;101834.81;5042247;28;20453;-74
2023/04/30 10:03:12;;;;;;;5.78;1.20;;;;;;;10.20;48.67;101828.91;5018063;28;20128;-72
2023/04/30 10:05:46;;;;;;;4.13;0.80;;;;;;;10.33;50.25;101845.41;5035693;28;20037;-72
2023/04/30 10:08:30;;;;;;;4.73;1.17;;;;;;;10.08;46.93;101828.44;5029249;28;20083;-73
2023/04/30 10:11:07;;;;;;;3.22;0.93;;;;;;;10.22;46.53;101834.97;5049320;28;20251;-74
2023/04/30 10:13:40;;;;;;;3.25;0.82;;;;;;;10.51;45.62;101816.44;5023358;28;20044;-72
2023/04/30 10:16:18;;;;;;;2.92;1.00;;;;;;;10.73;46.19;101836.38;5033686;28;20231;-74
2023/04/30 10:18:48;;;;;;;6.97;1.20;;;;;;;10.36;49.97;101834.28;5051471;28;20032;-74
2023/04/30 10:21:16;;;;;;;5.50;1.10;;;;;;;10.20;50.70;101819.03;5035691;28;20030;-75
2023/04/30 10:23:43;;;;;;;3.05;0.88;;;;;;;10.29;49.23;101839.53;5033868;28;20044;-74
2023/04/30 10:26:13;;;;;;;4.35;1.00;;;;;;;10.61;47.32;101836.91;5050605;28;20141;-74
2023/04/30 10:28:39;;;;;;;5.78;1.02;;;;;;;10.92;46.47;101843.16;5034742;28;20032;-74
2023/04/30 10:31:06;;;;;;;4.25;1.08;;;;;;;10.98;47.69;101836.25;5034356;28;20029;-74
2023/04/30 10:33:48;;;;;;;2.63;0.85;;;;;;;11.21;46.92;101847.06;5035143;28;20124;-74
2023/04/30 10:36:21;;;;;;;3.33;1.00;;;;;;;11.26;46.42;101850.06;5033303;28;20484;-74
2023/04/30 10:38:47;;;;;;;4.40;1.10;;;;;;;11.00;47.72;101850.38;5033219;28;20077;-75
2023/04/30 10:41:13;;;;;;;2.63;0.70;;;;;;;11.18;47.31;101850.94;5050417;28;20040;-74
2023/04/30 10:43:40;;;;;;;5.20;1.00;;;;;;;11.38;44.51;101832.44;5050108;28;20033;-73
2023/04/30 10:46:07;;;;;;;6.00;1.20;;;;;;;11.87;44.76;101842.88;5017619;28;20040;-74
2023/04/30 10:48:34;;;;;;;6.20;1.10;;;;;;;11.74;43.76;101843.47;5049630;28;20052;-71
2023/04/30 10:51:00;;;;;;;2.53;1.00;;;;;;;10.90;45.63;101839.00;5016304;28;20493;-74
2023/04/30 10:53:30;;;;;;;4.50;1.42;;;;;;;11.09;45.93;101824.22;5015720;28;20025;-69
2023/04/30 10:56:06;;;;;;;3.72;0.90;;;;;;;11.45;45.10;101851.44;5033815;28;20025;-71
2023/04/30 10:58:36;;;;;;;4.07;0.90;;;;;;;11.63;44.13;101845.75;5042406;28;20033;-72
2023/04/30 11:01:14;;;;;;;4.10;1.00;;;;;;;11.62;44.18;101857.53;5048545;28;20021;-71
2023/04/30 11:03:41;;;;;;;2.35;0.80;;;;;;;11.79;43.13;101842.06;5037111;28;20026;-72
2023/04/30 11:06:19;;;;;;;3.35;0.98;;;;;;;11.97;42.54;101853.41;5039047;28;20031;-72
2023/04/30 11:08:45;;;;;;;4.03;0.77;;;;;;;12.13;42.68;101858.66;5035920;28;20025;-71
2023/04/30 11:11:16;;;;;;;5.65;1.15;;;;;;;12.11;41.78;101840.97;5034787;28;20049;-72
2023/04/30 11:13:46;;;;;;;6.95;1.20;;;;;;;11.23;44.00;101843.16;5032246;28;20033;-71
2023/04/30 11:16:12;;;;;;;2.90;0.80;;;;;;;11.18;43.93;101864.41;5034597;28;20040;-71
2023/04/30 11:18:45;;;;;;;4.00;0.82;;;;;;;11.52;42.66;101857.78;5035473;28;20080;-71
2023/04/30 11:21:11;;;;;;;6.80;1.15;;;;;;;11.59;43.36;101839.91;5033424;28;20022;-71
2023/04/30 11:23:43;;;;;;;3.85;0.90;;;;;;;11.61;43.22;101866.66;5033240;28;20031;-70
2023/04/30 11:26:09;;;;;;;3.03;0.80;;;;;;;11.49;43.14;101847.38;5033158;28;20052;-71
2023/04/30 11:28:36;;;;;;;3.10;0.80;;;;;;;11.63;43.26;101870.84;5031825;28;20017;-72
2023/04/30 11:31:03;;;;;;;3.15;0.80;;;;;;;12.04;42.28;101867.84;5033327;28;20034;-71
2023/04/30 11:33:30;;;;;;;4.80;0.88;;;;;;;12.26;42.04;101871.53;5032192;28;20064;-72